Time;durP1;ratioP1;P1;durP2;ratioP2;P2;SDS_P1;SDS_P2;PMS_P1;PMS_P2;Temp;Humidity;BMP_temperature;BMP_pressure;BME280_temperature;BME280_humidity;BME280_pressure;Samples;Min_cycle;Max_cycle;Signal;HPM_P1;HPM_P2
2023/03/24 00:01:03;;;;;;;9.35;4.30;;;;;;;;;;4984116;28;20038;-81
2023/03/24 00:03:32;;;;;;;8.55;4.00;;;;;;;;;;4965171;28;20050;-80
2023/03/24 00:06:01;;;;;;;9.05;3.75;;;;;;;;;;4984057;28;21963;-81
2023/03/24 00:08:53;;;;;;;10.98;4.18;;;;;;;;;;4983032;28;20038;-81
2023/03/24 00:11:21;;;;;;;11.48;3.65;;;;;;;;;;4998995;28;20049;-81
2023/03/24 00:13:49;;;;;;;7.13;3.42;;;;;;;;;;4985168;28;20058;-81
2023/03/24 00:17:13;;;;;;;10.20;3.90;;;;;;;;;;4981656;28;20030;-81
2023/03/24 00:20:13;;;;;;;8.25;3.58;;;;;;;;;;4970891;28;20067;-81
2023/03/24 00:22:49;;;;;;;7.90;3.75;;;;;;;;;;4981111;28;20711;-81
2023/03/24 00:25:22;;;;;;;7.63;3.03;;;;;;;;;;4968560;28;20313;-80
2023/03/24 00:27:52;;;;;;;8.82;3.42;;;;;;;;;;4984727;28;20050;-81
2023/03/24 00:30:19;;;;;;;7.25;3.10;;;;;;;;;;4961713;28;20115;-81
2023/03/24 00:32:47;;;;;;;6.40;2.85;;;;;;;;;;4983177;28;20794;-81
2023/03/24 00:35:16;;;;;;;6.47;3.13;;;;;;;;;;4951793;28;20030;-81
2023/03/24 00:37:45;;;;;;;10.13;3.22;;;;;;;;;;4969964;28;20443;-81
2023/03/24 00:40:44;;;;;;;6.40;2.80;;;;;;;;;;4985070;28;20048;-81
2023/03/24 00:43:43;;;;;;;9.52;2.88;;;;;;;;;;4984907;28;20026;-81
2023/03/24 00:46:26;;;;;;;9.02;3.00;;;;;;;;;;5002091;28;20041;-81
2023/03/24 00:49:04;;;;;;;6.75;2.63;;;;;;;;;;4996648;28;20637;-81
2023/03/24 00:51:57;;;;;;;8.90;3.00;;;;;;;;;;4987540;28;20040;-81
2023/03/24 00:54:54;;;;;;;5.32;2.75;;;;;;;;;;4969630;28;20041;-81
2023/03/24 00:57:21;;;;;;;7.55;2.88;;;;;;;;;;4999539;28;20043;-81
2023/03/24 00:59:51;;;;;;;6.68;2.83;;;;;;;;;;4970671;28;20042;-81
2023/03/24 01:02:24;;;;;;;8.90;2.80;;;;;;;;;;4966873;28;20049;-81
2023/03/24 01:05:00;;;;;;;4.60;2.63;;;;;;;;;;4985246;28;20054;-81
2023/03/24 01:07:32;;;;;;;6.70;2.70;;;;;;;;;;4970133;28;20038;-81
2023/03/24 01:09:59;;;;;;;6.82;2.88;;;;;;;;;;4987042;28;20035;-81
2023/03/24 01:12:27;;;;;;;5.75;2.47;;;;;;;;;;5001028;28;20772;-81
2023/03/24 01:14:57;;;;;;;6.18;2.45;;;;;;;;;;4986216;28;20042;-81
2023/03/24 01:17:29;;;;;;;6.57;2.30;;;;;;;;;;4986627;28;20472;-81
2023/03/24 01:19:57;;;;;;;6.07;2.45;;;;;;;;;;4985437;28;20104;-81
2023/03/24 01:22:36;;;;;;;7.35;2.20;;;;;;;;;;4955227;28;20050;-81
2023/03/24 01:25:15;;;;;;;8.35;2.50;;;;;;;;;;4983549;28;20030;-81
2023/03/24 01:27:44;;;;;;;6.93;2.85;;;;;;;;;;4986070;28;20291;-81
2023/03/24 01:30:17;;;;;;;8.52;3.00;;;;;;;;;;4985175;28;20123;-81
2023/03/24 01:32:45;;;;;;;10.95;2.42;;;;;;;;;;4985087;28;20043;-81
2023/03/24 01:35:39;;;;;;;5.47;2.83;;;;;;;;;;4972437;28;20042;-80
2023/03/24 01:38:09;;;;;;;5.65;2.40;;;;;;;;;;4986686;28;20045;-81
2023/03/24 01:40:45;;;;;;;6.45;2.50;;;;;;;;;;4986136;28;20143;-81
2023/03/24 01:43:20;;;;;;;6.13;2.50;;;;;;;;;;4963759;28;20605;-81
2023/03/24 01:45:50;;;;;;;7.53;2.55;;;;;;;;;;4999465;28;20500;-81
2023/03/24 01:48:42;;;;;;;8.27;2.72;;;;;;;;;;5000026;28;20048;-81
2023/03/24 01:51:24;;;;;;;5.78;2.40;;;;;;;;;;4986700;28;20290;-81
2023/03/24 01:54:26;;;;;;;4.75;2.20;;;;;;;;;;4967850;28;20034;-81
2023/03/24 01:57:24;;;;;;;6.00;2.50;;;;;;;;;;4984531;28;20706;-81
2023/03/24 02:00:01;;;;;;;4.75;2.13;;;;;;;;;;4985865;28;20043;-81
2023/03/24 02:02:53;;;;;;;5.35;2.17;;;;;;;;;;5001586;28;20039;-81
2023/03/24 02:05:30;;;;;;;6.50;2.35;;;;;;;;;;4967808;28;20030;-81
2023/03/24 02:08:27;;;;;;;4.82;2.30;;;;;;;;;;4958859;28;20034;-81
2023/03/24 02:11:00;;;;;;;6.38;2.50;;;;;;;;;;4984897;28;20038;-81
2023/03/24 02:13:37;;;;;;;4.50;2.20;;;;;;;;;;4975732;28;20404;-81
2023/03/24 02:16:25;;;;;;;5.38;2.20;;;;;;;;;;4967961;28;20050;-81
2023/03/24 02:19:37;;;;;;;7.85;2.28;;;;;;;;;;4968732;28;20038;-81
2023/03/24 02:22:24;;;;;;;5.18;2.63;;;;;;;;;;4965728;28;20044;-81
2023/03/24 02:25:38;;;;;;;5.82;2.30;;;;;;;;;;4983574;28;20083;-81
2023/03/24 02:28:22;;;;;;;6.35;2.50;;;;;;;;;;4983779;28;20046;-81
2023/03/24 02:31:20;;;;;;;5.15;2.50;;;;;;;;;;4946709;28;20096;-81
2023/03/24 02:34:25;;;;;;;5.45;2.28;;;;;;;;;;4952472;28;20073;-81
2023/03/24 02:37:26;;;;;;;6.07;2.45;;;;;;;;;;4983391;28;20572;-81
2023/03/24 02:40:44;;;;;;;8.35;2.50;;;;;;;;;;4968844;28;20069;-81
2023/03/24 02:43:19;;;;;;;6.65;2.40;;;;;;;;;;4923706;29;20797;-81
2023/03/24 02:46:06;;;;;;;5.63;2.55;;;;;;;;;;4928061;29;20075;-81
2023/03/24 02:48:45;;;;;;;8.95;2.67;;;;;;;;;;4928833;29;20114;-81
2023/03/24 02:52:00;;;;;;;7.50;2.60;;;;;;;;;;4935700;28;20044;-81
2023/03/24 02:54:50;;;;;;;6.30;2.00;;;;;;;;;;4921204;28;20708;-81
2023/03/24 02:57:44;;;;;;;5.78;2.25;;;;;;;;;;4934896;28;20083;-81
2023/03/24 03:01:02;;;;;;;7.25;2.17;;;;;;;;;;4919586;28;20070;-81
2023/03/24 03:03:50;;;;;;;4.05;2.15;;;;;;;;;;4973280;28;20141;-81
2023/03/24 03:06:35;;;;;;;5.78;2.17;;;;;;;;;;4977900;28;20069;-81
2023/03/24 03:09:13;;;;;;;6.75;2.30;;;;;;;;;;4977018;28;20042;-81
2023/03/24 03:11:46;;;;;;;7.65;2.53;;;;;;;;;;4991230;28;20038;-81
2023/03/24 03:14:31;;;;;;;6.18;2.60;;;;;;;;;;4978179;28;20564;-81
2023/03/24 03:17:29;;;;;;;10.00;2.80;;;;;;;;;;4977163;28;20034;-81
2023/03/24 03:20:23;;;;;;;4.93;2.22;;;;;;;;;;4986977;28;20049;-81
2023/03/24 03:23:06;;;;;;;6.97;2.50;;;;;;;;;;4985566;28;20453;-81
2023/03/24 03:26:04;;;;;;;5.93;2.30;;;;;;;;;;4955892;28;20042;-81
2023/03/24 03:28:42;;;;;;;9.95;2.70;;;;;;;;;;4985219;28;20046;-81
2023/03/24 03:31:14;;;;;;;6.75;2.28;;;;;;;;;;4983886;28;20057;-81
2023/03/24 03:36:53;;;;;;;6.65;2.50;;;;;;;;;;4984601;28;20541;-81
2023/03/24 03:39:55;;;;;;;8.05;2.80;;;;;;;;;;4998904;28;20115;-81
2023/03/24 03:42:29;;;;;;;7.50;2.80;;;;;;;;;;4967838;28;20038;-81
2023/03/24 03:45:04;;;;;;;6.28;2.65;;;;;;;;;;4967811;28;20123;-81
2023/03/24 03:47:31;;;;;;;8.27;2.70;;;;;;;;;;4960386;28;20099;-81
2023/03/24 03:50:06;;;;;;;7.45;2.47;;;;;;;;;;4968069;28;20515;-81
2023/03/24 03:52:35;;;;;;;8.35;2.47;;;;;;;;;;4996394;28;20078;-81
2023/03/24 03:55:11;;;;;;;8.40;2.60;;;;;;;;;;4968235;28;20031;-81
2023/03/24 03:57:40;;;;;;;7.50;2.80;;;;;;;;;;4979744;28;20671;-81
2023/03/24 04:00:19;;;;;;;6.40;2.70;;;;;;;;;;4986901;28;20046;-81
2023/03/24 04:03:39;;;;;;;10.45;2.80;;;;;;;;;;4947086;28;20051;-81
2023/03/24 04:06:36;;;;;;;6.60;2.83;;;;;;;;;;4938277;28;20058;-81
2023/03/24 04:09:27;;;;;;;7.55;3.13;;;;;;;;;;4952768;28;20075;-81
2023/03/24 04:12:15;;;;;;;6.45;2.63;;;;;;;;;;4924128;28;20047;-81
2023/03/24 04:15:18;;;;;;;9.77;3.35;;;;;;;;;;4934753;28;20621;-81
2023/03/24 04:18:09;;;;;;;7.70;2.85;;;;;;;;;;4936523;28;20055;-81
2023/03/24 04:21:47;;;;;;;7.57;2.78;;;;;;;;;;4943231;28;20698;-81
2023/03/24 04:24:31;;;;;;;7.07;2.67;;;;;;;;;;4931402;28;20078;-81
2023/03/24 04:27:46;;;;;;;6.45;3.40;;;;;;;;;;4947938;28;20089;-81
2023/03/24 04:30:54;;;;;;;7.53;2.70;;;;;;;;;;4954712;28;20039;-81
2023/03/24 04:33:30;;;;;;;6.07;3.03;;;;;;;;;;4907936;28;20058;-81
2023/03/24 04:36:05;;;;;;;6.50;3.15;;;;;;;;;;4943198;28;20089;-81
2023/03/24 04:38:52;;;;;;;4.97;2.97;;;;;;;;;;4931195;28;20132;-81
2023/03/24 04:41:31;;;;;;;5.38;3.25;;;;;;;;;;4947059;28;20415;-81
2023/03/24 04:44:11;;;;;;;8.60;2.90;;;;;;;;;;4968501;28;20465;-81
2023/03/24 04:47:01;;;;;;;9.20;3.25;;;;;;;;;;4968200;28;20042;-81
2023/03/24 04:49:29;;;;;;;4.60;2.75;;;;;;;;;;4984002;28;20492;-81
2023/03/24 04:52:04;;;;;;;5.20;2.88;;;;;;;;;;4969421;28;20133;-81
2023/03/24 04:54:55;;;;;;;5.97;2.88;;;;;;;;;;4969689;28;20046;-81
2023/03/24 04:57:25;;;;;;;7.97;3.15;;;;;;;;;;4983559;28;20038;-81
2023/03/24 05:00:26;;;;;;;6.60;3.30;;;;;;;;;;5002548;28;20053;-81
2023/03/24 05:02:55;;;;;;;8.23;3.30;;;;;;;;;;4960128;28;20482;-81
2023/03/24 05:05:25;;;;;;;6.68;3.15;;;;;;;;;;4967118;28;20504;-81
2023/03/24 05:07:57;;;;;;;7.57;3.53;;;;;;;;;;4961644;28;20099;-82
2023/03/24 05:10:27;;;;;;;9.52;3.45;;;;;;;;;;4968609;28;20467;-81
2023/03/24 05:13:07;;;;;;;7.65;2.90;;;;;;;;;;4968356;28;20042;-81
2023/03/24 05:15:35;;;;;;;5.40;2.95;;;;;;;;;;4983984;28;20531;-81
2023/03/24 05:18:29;;;;;;;5.07;2.88;;;;;;;;;;4968355;28;20133;-81
2023/03/24 05:21:03;;;;;;;6.60;2.80;;;;;;;;;;4947901;28;20758;-81
2023/03/24 05:23:55;;;;;;;8.75;3.30;;;;;;;;;;5000910;28;20052;-82
2023/03/24 05:26:25;;;;;;;6.55;3.38;;;;;;;;;;4969221;28;20030;-81
2023/03/24 05:29:11;;;;;;;10.25;3.05;;;;;;;;;;4968915;28;20042;-81
2023/03/24 05:32:03;;;;;;;5.10;3.08;;;;;;;;;;4998260;28;20034;-81
2023/03/24 05:34:57;;;;;;;4.32;2.72;;;;;;;;;;4973136;28;20046;-81
2023/03/24 05:37:33;;;;;;;5.65;3.20;;;;;;;;;;4984390;28;20516;-81
2023/03/24 05:40:03;;;;;;;8.48;3.67;;;;;;;;;;4983275;28;20046;-81
2023/03/24 05:42:51;;;;;;;8.77;3.72;;;;;;;;;;4967705;28;20053;-81
2023/03/24 05:45:28;;;;;;;7.43;3.10;;;;;;;;;;4984247;28;20027;-82
2023/03/24 05:47:57;;;;;;;6.03;3.75;;;;;;;;;;4967104;28;20045;-82
2023/03/24 05:50:37;;;;;;;5.55;2.92;;;;;;;;;;4966876;28;20137;-81
2023/03/24 05:53:05;;;;;;;9.63;3.33;;;;;;;;;;4968344;28;20054;-81
2023/03/24 05:55:58;;;;;;;6.63;3.58;;;;;;;;;;4967707;28;20035;-81
2023/03/24 05:59:11;;;;;;;8.52;3.40;;;;;;;;;;4944562;28;20068;-82
2023/03/24 06:02:05;;;;;;;8.07;3.85;;;;;;;;;;4997268;28;20544;-81
2023/03/24 06:05:00;;;;;;;5.00;3.20;;;;;;;;;;4995424;28;20141;-82
2023/03/24 06:07:29;;;;;;;6.50;3.40;;;;;;;;;;4997117;28;20054;-81
2023/03/24 06:10:25;;;;;;;5.05;2.95;;;;;;;;;;4997644;28;20172;-82
2023/03/24 06:12:59;;;;;;;4.95;3.20;;;;;;;;;;4996457;28;20271;-81
2023/03/24 06:15:27;;;;;;;5.63;3.03;;;;;;;;;;4996644;28;20778;-81
2023/03/24 06:18:15;;;;;;;8.07;3.45;;;;;;;;;;4991832;28;20246;-81
2023/03/24 06:20:49;;;;;;;8.93;3.40;;;;;;;;;;4997830;28;20129;-81
2023/03/24 06:23:48;;;;;;;7.32;3.20;;;;;;;;;;4996381;28;20037;-82
2023/03/24 06:26:19;;;;;;;4.28;3.00;;;;;;;;;;4982337;28;20593;-82
2023/03/24 06:28:56;;;;;;;5.82;2.95;;;;;;;;;;4981858;28;20054;-81
2023/03/24 06:31:29;;;;;;;5.68;2.83;;;;;;;;;;4982279;28;20110;-82
2023/03/24 06:34:02;;;;;;;5.28;2.45;;;;;;;;;;4996534;28;20052;-81
2023/03/24 06:36:33;;;;;;;5.57;3.10;;;;;;;;;;4981315;28;20045;-81
2023/03/24 06:39:01;;;;;;;7.05;3.08;;;;;;;;;;4976575;28;20050;-81
2023/03/24 06:41:30;;;;;;;5.45;3.08;;;;;;;;;;4982584;28;20038;-82
2023/03/24 06:43:59;;;;;;;6.75;3.22;;;;;;;;;;4984298;28;20053;-83
2023/03/24 06:46:53;;;;;;;5.75;3.13;;;;;;;;;;4983551;28;20031;-83
2023/03/24 06:49:29;;;;;;;7.85;3.30;;;;;;;;;;4966505;28;20050;-83
2023/03/24 06:52:05;;;;;;;5.18;3.17;;;;;;;;;;4967296;28;20049;-83
2023/03/24 06:54:37;;;;;;;7.32;3.65;;;;;;;;;;4960924;28;20707;-83
2023/03/24 06:57:09;;;;;;;6.07;3.03;;;;;;;;;;4979067;28;20050;-83
2023/03/24 07:00:19;;;;;;;7.07;3.92;;;;;;;;;;4983975;28;20121;-83
2023/03/24 07:03:09;;;;;;;7.45;3.65;;;;;;;;;;4965292;28;20685;-83
2023/03/24 07:05:42;;;;;;;5.57;3.17;;;;;;;;;;4976011;28;20034;-83
2023/03/24 07:08:16;;;;;;;8.73;2.80;;;;;;;;;;4957194;28;20070;-83
2023/03/24 07:10:57;;;;;;;5.80;2.70;;;;;;;;;;4951527;28;20089;-83
2023/03/24 07:13:29;;;;;;;5.50;2.80;;;;;;;;;;4965320;28;20141;-83
2023/03/24 07:16:21;;;;;;;4.68;2.95;;;;;;;;;;4984250;28;20030;-82
2023/03/24 07:19:27;;;;;;;4.85;3.00;;;;;;;;;;4958437;28;20038;-83
2023/03/24 07:22:41;;;;;;;8.10;3.08;;;;;;;;;;4914793;28;20143;-84
2023/03/24 07:25:25;;;;;;;3.88;2.33;;;;;;;;;;4925094;28;20044;-83
2023/03/24 07:28:17;;;;;;;6.28;2.22;;;;;;;;;;4939454;28;20059;-83
2023/03/24 07:31:09;;;;;;;3.05;1.95;;;;;;;;;;4929640;28;20040;-83
2023/03/24 07:34:01;;;;;;;4.22;2.25;;;;;;;;;;4926734;28;20074;-84
2023/03/24 07:36:43;;;;;;;3.75;1.85;;;;;;;;;;4951043;28;20047;-83
2023/03/24 07:39:19;;;;;;;5.55;2.10;;;;;;;;;;4915587;28;20043;-83
2023/03/24 07:41:47;;;;;;;6.63;2.25;;;;;;;;;;4931240;28;20067;-83
2023/03/24 07:44:59;;;;;;;5.03;2.20;;;;;;;;;;4919981;28;20702;-83
2023/03/24 07:47:27;;;;;;;3.80;2.03;;;;;;;;;;4896720;28;20126;-83
2023/03/24 07:50:11;;;;;;;4.30;1.60;;;;;;;;;;4933403;28;20047;-83
2023/03/24 07:52:53;;;;;;;5.13;1.90;;;;;;;;;;4929125;28;20103;-83
2023/03/24 07:55:23;;;;;;;4.10;2.00;;;;;;;;;;4956970;28;20128;-83
2023/03/24 07:58:17;;;;;;;4.35;1.60;;;;;;;;;;4984779;28;20039;-83
2023/03/24 08:01:11;;;;;;;8.90;1.48;;;;;;;;;;4971032;28;20133;-83
2023/03/24 08:03:47;;;;;;;5.70;1.55;;;;;;;;;;4987232;28;22127;-83
2023/03/24 08:06:15;;;;;;;8.50;1.65;;;;;;;;;;5003636;28;20043;-83
2023/03/24 08:08:51;;;;;;;4.70;1.50;;;;;;;;;;4967129;28;20042;-83
2023/03/24 08:11:19;;;;;;;4.28;1.25;;;;;;;;;;4971064;28;20564;-83
2023/03/24 08:13:47;;;;;;;7.78;1.30;;;;;;;;;;4988054;28;20092;-83
2023/03/24 08:16:15;;;;;;;6.00;1.50;;;;;;;;;;4981271;28;20043;-83
2023/03/24 08:18:43;;;;;;;4.93;1.20;;;;;;;;;;4962782;28;20047;-83
2023/03/24 08:21:14;;;;;;;3.10;1.77;;;;;;;;;;4968853;28;20122;-83
2023/03/24 08:23:47;;;;;;;8.63;1.23;;;;;;;;;;4987415;28;20038;-83
2023/03/24 08:26:19;;;;;;;3.97;1.48;;;;;;;;;;4988243;28;20484;-83
2023/03/24 08:28:48;;;;;;;5.75;1.67;;;;;;;;;;4987905;28;20075;-82
2023/03/24 08:31:15;;;;;;;6.03;1.70;;;;;;;;;;4986551;28;20070;-83
2023/03/24 08:34:10;;;;;;;10.90;1.33;;;;;;;;;;4973806;28;20030;-83
2023/03/24 08:36:40;;;;;;;3.65;1.30;;;;;;;;;;4979855;28;20053;-83
2023/03/24 08:39:08;;;;;;;5.63;1.13;;;;;;;;;;4978910;28;20053;-83
2023/03/24 08:41:45;;;;;;;7.43;1.15;;;;;;;;;;4967340;28;20066;-81
2023/03/24 08:44:19;;;;;;;8.65;1.30;;;;;;;;;;4983660;28;20054;-81
2023/03/24 08:46:53;;;;;;;7.63;1.40;;;;;;;;;;4980046;28;20042;-81
2023/03/24 08:49:21;;;;;;;4.88;1.23;;;;;;;;;;4983727;28;20062;-82
2023/03/24 08:51:52;;;;;;;4.43;1.23;;;;;;;;;;4982141;28;20038;-81
2023/03/24 08:54:22;;;;;;;5.05;1.48;;;;;;;;;;4981811;28;20595;-81
2023/03/24 08:56:49;;;;;;;5.40;1.13;;;;;;;;;;4966552;28;20042;-81
2023/03/24 08:59:17;;;;;;;6.30;1.13;;;;;;;;;;4985677;28;20042;-81
2023/03/24 09:01:45;;;;;;;8.35;1.63;;;;;;;;;;4958678;28;20046;-82
2023/03/24 09:04:13;;;;;;;8.02;1.00;;;;;;;;;;4965055;28;20045;-82
2023/03/24 09:06:41;;;;;;;5.57;0.98;;;;;;;;;;4981400;28;20960;-82
2023/03/24 09:09:09;;;;;;;6.05;1.27;;;;;;;;;;4985837;28;20050;-81
2023/03/24 09:11:37;;;;;;;4.85;1.00;;;;;;;;;;4959488;28;20050;-81
2023/03/24 09:14:05;;;;;;;7.05;1.55;;;;;;;;;;4984537;28;20633;-81
2023/03/24 09:16:37;;;;;;;5.75;1.30;;;;;;;;;;4983257;28;20030;-81
2023/03/24 09:19:06;;;;;;;7.60;1.25;;;;;;;;;;4984922;28;20042;-82
2023/03/24 09:21:37;;;;;;;3.47;0.82;;;;;;;;;;4981615;28;20050;-83
2023/03/24 09:24:05;;;;;;;4.68;1.23;;;;;;;;;;4985792;28;20065;-83
2023/03/24 09:26:40;;;;;;;6.00;1.30;;;;;;;;;;4983140;28;20034;-82
2023/03/24 09:29:13;;;;;;;3.53;1.50;;;;;;;;;;4965936;28;20522;-82
2023/03/24 09:31:41;;;;;;;4.72;1.10;;;;;;;;;;4980983;28;20046;-82
2023/03/24 09:34:09;;;;;;;9.07;1.45;;;;;;;;;;4998513;28;20042;-83
2023/03/24 09:36:37;;;;;;;5.93;1.15;;;;;;;;;;4983024;28;20037;-83
2023/03/24 09:39:05;;;;;;;10.65;1.73;;;;;;;;;;4978828;28;20068;-82
2023/03/24 09:41:43;;;;;;;5.00;1.77;;;;;;;;;;4952947;28;20505;-83
2023/03/24 09:44:20;;;;;;;9.32;1.33;;;;;;;;;;5000368;28;20046;-82
2023/03/24 09:47:00;;;;;;;4.78;1.63;;;;;;;;;;4980357;28;20031;-82
2023/03/24 09:49:33;;;;;;;6.68;1.42;;;;;;;;;;4979934;28;20045;-83
2023/03/24 09:52:04;;;;;;;7.97;1.00;;;;;;;;;;4998611;28;20046;-82
2023/03/24 09:54:50;;;;;;;9.77;1.85;;;;;;;;;;5001766;28;20074;-82
2023/03/24 09:57:40;;;;;;;9.13;1.40;;;;;;;;;;4945296;28;20037;-82
2023/03/24 10:00:17;;;;;;;4.00;1.35;;;;;;;;;;4981335;28;20116;-82
2023/03/24 10:02:45;;;;;;;9.25;1.67;;;;;;;;;;4982736;28;20043;-82
2023/03/24 10:05:30;;;;;;;7.63;1.40;;;;;;;;;;4982084;28;20119;-82
2023/03/24 10:08:20;;;;;;;9.00;1.63;;;;;;;;;;4966060;28;21268;-83
2023/03/24 10:11:16;;;;;;;8.18;1.50;;;;;;;;;;4984968;28;20070;-82
2023/03/24 10:13:45;;;;;;;7.32;1.27;;;;;;;;;;4924000;28;20175;-82
2023/03/24 10:16:56;;;;;;;6.03;1.30;;;;;;;;;;4922788;28;20048;-82
2023/03/24 10:20:01;;;;;;;9.18;1.73;;;;;;;;;;4925270;28;20047;-82
2023/03/24 10:23:15;;;;;;;9.32;1.52;;;;;;;;;;4925478;28;20050;-82
2023/03/24 10:25:58;;;;;;;5.15;1.33;;;;;;;;;;4963087;28;20078;-82
2023/03/24 10:28:34;;;;;;;11.75;2.25;;;;;;;;;;4962040;28;20059;-82
2023/03/24 10:31:07;;;;;;;5.55;1.52;;;;;;;;;;4959718;28;20067;-82
2023/03/24 10:33:42;;;;;;;7.60;1.42;;;;;;;;;;4962249;28;20058;-82
2023/03/24 10:36:34;;;;;;;6.25;1.38;;;;;;;;;;4961963;28;20070;-82
2023/03/24 10:42:23;;;;;;;5.18;1.30;;;;;;;;;;4962004;28;20059;-82
2023/03/24 10:44:51;;;;;;;5.82;1.50;;;;;;;;;;4959304;28;20051;-82
2023/03/24 10:47:26;;;;;;;7.10;1.63;;;;;;;;;;4965007;28;20034;-82
2023/03/24 10:49:59;;;;;;;7.57;1.20;;;;;;;;;;4963513;28;20460;-82
2023/03/24 10:52:49;;;;;;;9.77;1.20;;;;;;;;;;4993951;28;20078;-82
2023/03/24 10:55:23;;;;;;;3.75;1.02;;;;;;;;;;4977900;28;20045;-82
2023/03/24 10:57:56;;;;;;;7.03;1.50;;;;;;;;;;4976825;28;20452;-82
2023/03/24 11:00:28;;;;;;;6.50;1.65;;;;;;;;;;4978760;28;20654;-82
2023/03/24 11:03:16;;;;;;;6.70;1.10;;;;;;;;;;4978394;28;20042;-82
2023/03/24 11:05:45;;;;;;;4.45;1.10;;;;;;;;;;4984226;28;20053;-82
2023/03/24 11:08:40;;;;;;;10.27;1.40;;;;;;;;;;4986993;28;20412;-82
2023/03/24 11:11:22;;;;;;;5.18;1.10;;;;;;;;;;4985218;28;20496;-82
2023/03/24 11:14:00;;;;;;;7.30;1.33;;;;;;;;;;4987533;28;20046;-82
2023/03/24 11:16:41;;;;;;;6.53;1.30;;;;;;;;;;4987229;28;20046;-82
2023/03/24 11:19:21;;;;;;;4.43;1.00;;;;;;;;;;4970970;28;20107;-82
2023/03/24 11:22:01;;;;;;;3.35;1.00;;;;;;;;;;4985925;28;20038;-82
2023/03/24 11:24:55;;;;;;;4.18;1.05;;;;;;;;;;4984047;28;20041;-81
2023/03/24 11:27:23;;;;;;;5.00;1.75;;;;;;;;;;4960305;28;20056;-81
2023/03/24 11:29:53;;;;;;;4.38;1.05;;;;;;;;;;4985974;28;20043;-81
2023/03/24 11:32:26;;;;;;;4.78;1.10;;;;;;;;;;4984914;28;20046;-81
2023/03/24 11:35:17;;;;;;;6.55;1.30;;;;;;;;;;4995624;28;20099;-80
2023/03/24 11:37:49;;;;;;;6.25;1.17;;;;;;;;;;4967503;28;20046;-80
2023/03/24 11:40:58;;;;;;;5.90;1.38;;;;;;;;;;4984677;28;20679;-80
2023/03/24 11:43:49;;;;;;;7.68;1.40;;;;;;;;;;4996833;28;20091;-80
2023/03/24 11:46:19;;;;;;;4.10;0.90;;;;;;;;;;4982174;28;20035;-82
2023/03/24 11:48:57;;;;;;;7.43;1.20;;;;;;;;;;4955180;28;20400;-81
2023/03/24 11:51:34;;;;;;;4.45;1.13;;;;;;;;;;4987736;28;20049;-80
2023/03/24 11:54:10;;;;;;;8.13;1.27;;;;;;;;;;4965688;28;20137;-80
2023/03/24 11:56:45;;;;;;;8.52;1.30;;;;;;;;;;4967899;28;20120;-80
2023/03/24 12:00:02;;;;;;;9.77;1.55;;;;;;;;;;4985263;28;20525;-80
2023/03/24 12:03:24;;;;;;;8.13;1.63;;;;;;;;;;4986461;28;20072;-80
2023/03/24 12:06:37;;;;;;;7.35;1.30;;;;;;;;;;4987553;28;20046;-80
2023/03/24 12:09:17;;;;;;;9.45;1.58;;;;;;;;;;4970237;28;20076;-80
2023/03/24 12:11:54;;;;;;;7.88;1.10;;;;;;;;;;4966913;28;20087;-80
2023/03/24 12:14:47;;;;;;;9.43;1.45;;;;;;;;;;4985265;28;20058;-80
2023/03/24 12:17:57;;;;;;;6.75;0.95;;;;;;;;;;4962705;28;20045;-80
2023/03/24 12:20:34;;;;;;;8.60;1.90;;;;;;;;;;4990995;28;20072;-80
2023/03/24 12:23:40;;;;;;;8.10;1.30;;;;;;;;;;4961755;28;20038;-80
2023/03/24 12:26:23;;;;;;;5.22;1.50;;;;;;;;;;5042328;28;20525;-80
2023/03/24 12:28:56;;;;;;;11.23;1.92;;;;;;;;;;5027527;28;20064;-80
2023/03/24 12:32:00;;;;;;;8.00;1.75;;;;;;;;;;5024350;28;20518;-80
2023/03/24 12:34:47;;;;;;;10.55;1.60;;;;;;;;;;5043229;28;20064;-80
2023/03/24 12:38:01;;;;;;;9.45;1.58;;;;;;;;;;5045459;28;20137;-80
2023/03/24 12:41:21;;;;;;;10.13;1.60;;;;;;;;;;4959013;28;20058;-80
2023/03/24 12:44:00;;;;;;;7.75;1.63;;;;;;;;;;4959264;28;20081;-80
2023/03/24 12:46:39;;;;;;;11.52;1.75;;;;;;;;;;4959434;28;20050;-80
2023/03/24 12:49:51;;;;;;;8.80;1.95;;;;;;;;;;4960972;28;20047;-80
2023/03/24 12:52:39;;;;;;;6.80;1.30;;;;;;;;;;4908538;29;20134;-80
2023/03/24 12:55:11;;;;;;;7.07;1.23;;;;;;;;;;4924001;29;20589;-80
2023/03/24 12:57:55;;;;;;;4.68;1.40;;;;;;;;;;4906915;29;20144;-80
2023/03/24 13:00:36;;;;;;;6.45;1.90;;;;;;;;;;4919718;29;20063;-80
2023/03/24 13:03:10;;;;;;;9.15;1.98;;;;;;;;;;4921126;29;20062;-80
2023/03/24 13:06:31;;;;;;;11.48;1.80;;;;;;;;;;4919435;29;20056;-80
2023/03/24 13:09:25;;;;;;;8.88;1.58;;;;;;;;;;4939239;28;20135;-80
2023/03/24 13:12:12;;;;;;;10.18;1.80;;;;;;;;;;4869820;29;20151;-80
2023/03/24 13:15:10;;;;;;;12.82;1.73;;;;;;;;;;4900355;29;20051;-80
2023/03/24 13:17:47;;;;;;;7.45;1.10;;;;;;;;;;4971588;28;20133;-80
2023/03/24 13:20:33;;;;;;;7.78;1.20;;;;;;;;;;5001736;28;20099;-80
2023/03/24 13:23:25;;;;;;;8.25;2.35;;;;;;;;;;5004631;28;20058;-81
2023/03/24 13:26:32;;;;;;;12.40;1.70;;;;;;;;;;5003181;28;20054;-82
2023/03/24 13:29:39;;;;;;;3.88;1.00;;;;;;;;;;5009927;28;20060;-82
2023/03/24 13:33:13;;;;;;;4.40;1.33;;;;;;;;;;5022226;28;20053;-82
2023/03/24 13:36:20;;;;;;;7.55;1.33;;;;;;;;;;4931259;28;20065;-81
2023/03/24 13:39:18;;;;;;;8.07;1.20;;;;;;;;;;4923710;29;20128;-82
2023/03/24 13:41:53;;;;;;;5.15;1.33;;;;;;;;;;4943024;29;20089;-82
2023/03/24 13:44:32;;;;;;;9.15;1.38;;;;;;;;;;4939961;28;20164;-82
2023/03/24 13:47:13;;;;;;;7.20;1.30;;;;;;;;;;4937925;28;20051;-82
2023/03/24 13:49:55;;;;;;;13.57;2.17;;;;;;;;;;4955549;28;20537;-82
2023/03/24 13:52:36;;;;;;;11.23;1.70;;;;;;;;;;4981140;28;20497;-82
2023/03/24 13:55:13;;;;;;;7.00;1.38;;;;;;;;;;4993476;28;20167;-82
2023/03/24 13:57:56;;;;;;;4.95;1.20;;;;;;;;;;4966252;28;20058;-82
2023/03/24 14:00:27;;;;;;;8.02;1.10;;;;;;;;;;4977848;28;20055;-82
2023/03/24 14:03:12;;;;;;;8.60;1.40;;;;;;;;;;4978813;28;20167;-82
2023/03/24 14:06:01;;;;;;;4.72;1.08;;;;;;;;;;4995101;28;20179;-82
2023/03/24 14:08:42;;;;;;;5.95;1.00;;;;;;;;;;4981162;28;20157;-82
2023/03/24 14:11:31;;;;;;;5.57;1.33;;;;;;;;;;4982264;28;20120;-82
2023/03/24 14:14:14;;;;;;;8.90;1.20;;;;;;;;;;4967434;28;20573;-82
2023/03/24 14:17:03;;;;;;;6.47;1.52;;;;;;;;;;4984169;28;20042;-80
2023/03/24 14:19:39;;;;;;;6.75;0.95;;;;;;;;;;4995652;28;20100;-81
2023/03/24 14:22:12;;;;;;;8.23;1.00;;;;;;;;;;4996534;28;20522;-81
2023/03/24 14:24:43;;;;;;;8.52;1.55;;;;;;;;;;4980683;28;20042;-81
2023/03/24 14:27:35;;;;;;;5.47;0.90;;;;;;;;;;4974503;28;20035;-81
2023/03/24 14:30:09;;;;;;;7.85;0.90;;;;;;;;;;4964541;28;20096;-81
2023/03/24 14:33:01;;;;;;;6.93;1.27;;;;;;;;;;4982207;28;20509;-81
2023/03/24 14:35:45;;;;;;;6.55;1.27;;;;;;;;;;4962767;28;20046;-82
2023/03/24 14:38:13;;;;;;;4.90;1.10;;;;;;;;;;4959802;28;20043;-81
2023/03/24 14:40:44;;;;;;;5.78;1.42;;;;;;;;;;4960767;28;20069;-81
2023/03/24 14:43:24;;;;;;;4.95;0.82;;;;;;;;;;4978579;28;20043;-81
2023/03/24 14:46:02;;;;;;;4.07;0.90;;;;;;;;;;4964113;28;20377;-81
2023/03/24 14:49:14;;;;;;;7.28;0.98;;;;;;;;;;4992334;28;20054;-80
2023/03/24 14:51:46;;;;;;;5.63;1.30;;;;;;;;;;4978941;28;20050;-81
2023/03/24 14:54:28;;;;;;;7.13;0.93;;;;;;;;;;4964651;28;20047;-80
2023/03/24 14:56:57;;;;;;;5.03;0.73;;;;;;;;;;4966681;28;20089;-81
2023/03/24 14:59:38;;;;;;;2.75;0.80;;;;;;;;;;4963843;28;20070;-81
2023/03/24 15:02:36;;;;;;;5.38;0.95;;;;;;;;;;4946623;28;20591;-81
2023/03/24 15:05:30;;;;;;;7.45;1.23;;;;;;;;;;4984889;28;20034;-80
2023/03/24 15:08:20;;;;;;;4.47;1.20;;;;;;;;;;4994271;28;20041;-80
2023/03/24 15:10:49;;;;;;;5.60;1.13;;;;;;;;;;4973248;28;20050;-80
2023/03/24 15:13:42;;;;;;;4.93;0.90;;;;;;;;;;4986695;28;20439;-80
2023/03/24 15:16:16;;;;;;;6.25;1.23;;;;;;;;;;4978421;28;20531;-80
2023/03/24 15:18:51;;;;;;;6.38;1.50;;;;;;;;;;4982244;28;20046;-81
2023/03/24 15:21:40;;;;;;;6.25;0.90;;;;;;;;;;4964832;28;20499;-80
2023/03/24 15:24:21;;;;;;;5.60;1.23;;;;;;;;;;4982699;28;20127;-80
2023/03/24 15:27:09;;;;;;;8.05;1.30;;;;;;;;;;4981067;28;20046;-81
2023/03/24 15:29:40;;;;;;;5.60;0.98;;;;;;;;;;4960006;28;20039;-80
2023/03/24 15:32:17;;;;;;;3.20;0.88;;;;;;;;;;4965382;28;20049;-80
2023/03/24 15:35:14;;;;;;;7.57;0.98;;;;;;;;;;4970933;28;20031;-80
2023/03/24 15:37:46;;;;;;;6.53;1.67;;;;;;;;;;4964643;28;20508;-80
2023/03/24 15:40:50;;;;;;;7.80;1.27;;;;;;;;;;4975527;28;20129;-81
2023/03/24 15:43:20;;;;;;;7.50;1.17;;;;;;;;;;4983419;28;20046;-81
2023/03/24 15:45:51;;;;;;;7.20;1.20;;;;;;;;;;4981660;28;20039;-81
2023/03/24 15:48:37;;;;;;;17.17;6.43;;;;;;;;;;4986432;28;20117;-81
2023/03/24 15:51:14;;;;;;;11.82;3.67;;;;;;;;;;4963225;28;20133;-81
2023/03/24 15:53:43;;;;;;;5.88;1.95;;;;;;;;;;4960151;28;20078;-81
2023/03/24 15:56:11;;;;;;;6.55;1.50;;;;;;;;;;4969129;28;20047;-81
2023/03/24 15:59:12;;;;;;;7.65;1.42;;;;;;;;;;4987682;28;20547;-81
2023/03/24 16:01:39;;;;;;;4.55;0.90;;;;;;;;;;4986980;28;20046;-81
2023/03/24 16:04:16;;;;;;;7.40;1.67;;;;;;;;;;4971004;28;20042;-81
2023/03/24 16:06:52;;;;;;;13.02;3.20;;;;;;;;;;4968364;28;20042;-81
2023/03/24 16:09:25;;;;;;;5.80;1.80;;;;;;;;;;4970492;28;20050;-82
2023/03/24 16:11:57;;;;;;;8.90;1.40;;;;;;;;;;4985441;28;20035;-81
2023/03/24 16:14:31;;;;;;;6.65;1.38;;;;;;;;;;4986399;28;20779;-81
2023/03/24 16:17:01;;;;;;;7.40;1.38;;;;;;;;;;4967885;28;20692;-81
2023/03/24 16:19:29;;;;;;;9.63;1.00;;;;;;;;;;4987761;28;20046;-81